sensor_id;sensor_type;location;lat;lon;timestamp;P1;durP1;ratioP1;P2;durP2;ratioP2
18411;SDS011;27097;51.738;19.472;2023-05-27T00:00:18;10.65;;;3.28;;
18411;SDS011;27097;51.738;19.472;2023-05-27T00:02:45;9.07;;;2.90;;
18411;SDS011;27097;51.738;19.472;2023-05-27T00:05:13;8.75;;;2.80;;
18411;SDS011;27097;51.738;19.472;2023-05-27T00:07:41;9.52;;;3.03;;
18411;SDS011;27097;51.738;19.472;2023-05-27T00:10:08;6.30;;;2.83;;
18411;SDS011;27097;51.738;19.472;2023-05-27T00:12:35;8.73;;;2.80;;
18411;SDS011;27097;51.738;19.472;2023-05-27T00:15:02;7.57;;;2.90;;
18411;SDS011;27097;51.738;19.472;2023-05-27T00:17:30;9.23;;;2.85;;
18411;SDS011;27097;51.738;19.472;2023-05-27T00:19:58;7.05;;;2.65;;
18411;SDS011;27097;51.738;19.472;2023-05-27T00:22:32;9.80;;;2.70;;
18411;SDS011;27097;51.738;19.472;2023-05-27T00:25:01;11.60;;;2.78;;
18411;SDS011;27097;51.738;19.472;2023-05-27T00:27:29;9.30;;;2.80;;
18411;SDS011;27097;51.738;19.472;2023-05-27T00:29:56;9.65;;;2.70;;
18411;SDS011;27097;51.738;19.472;2023-05-27T00:32:23;8.88;;;2.85;;
18411;SDS011;27097;51.738;19.472;2023-05-27T00:34:49;8.80;;;2.67;;
18411;SDS011;27097;51.738;19.472;2023-05-27T00:37:16;8.65;;;2.80;;
18411;SDS011;27097;51.738;19.472;2023-05-27T00:39:44;8.25;;;3.08;;
18411;SDS011;27097;51.738;19.472;2023-05-27T00:42:11;7.47;;;2.75;;
18411;SDS011;27097;51.738;19.472;2023-05-27T00:44:41;7.03;;;2.80;;
18411;SDS011;27097;51.738;19.472;2023-05-27T00:47:08;5.10;;;2.33;;
18411;SDS011;27097;51.738;19.472;2023-05-27T00:49:35;9.93;;;2.85;;
18411;SDS011;27097;51.738;19.472;2023-05-27T00:52:02;8.45;;;2.40;;
18411;SDS011;27097;51.738;19.472;2023-05-27T00:54:29;5.50;;;2.40;;
18411;SDS011;27097;51.738;19.472;2023-05-27T00:56:58;10.45;;;2.60;;
18411;SDS011;27097;51.738;19.472;2023-05-27T00:59:26;7.47;;;2.28;;
18411;SDS011;27097;51.738;19.472;2023-05-27T01:01:53;7.90;;;2.50;;
18411;SDS011;27097;51.738;19.472;2023-05-27T01:04:20;6.80;;;2.45;;
18411;SDS011;27097;51.738;19.472;2023-05-27T01:06:48;5.55;;;2.33;;
18411;SDS011;27097;51.738;19.472;2023-05-27T01:09:24;6.43;;;2.70;;
18411;SDS011;27097;51.738;19.472;2023-05-27T01:11:55;7.65;;;2.42;;
18411;SDS011;27097;51.738;19.472;2023-05-27T01:14:32;7.15;;;2.50;;
18411;SDS011;27097;51.738;19.472;2023-05-27T01:17:01;11.90;;;2.67;;
18411;SDS011;27097;51.738;19.472;2023-05-27T01:19:33;7.82;;;2.55;;
18411;SDS011;27097;51.738;19.472;2023-05-27T01:22:01;6.03;;;2.30;;
18411;SDS011;27097;51.738;19.472;2023-05-27T01:24:30;10.88;;;2.47;;
18411;SDS011;27097;51.738;19.472;2023-05-27T01:26:58;7.93;;;2.58;;
18411;SDS011;27097;51.738;19.472;2023-05-27T01:29:26;7.13;;;2.25;;
18411;SDS011;27097;51.738;19.472;2023-05-27T01:31:54;7.25;;;2.33;;
18411;SDS011;27097;51.738;19.472;2023-05-27T01:34:28;5.43;;;2.20;;
18411;SDS011;27097;51.738;19.472;2023-05-27T01:37:00;9.55;;;2.60;;
18411;SDS011;27097;51.738;19.472;2023-05-27T01:39:32;6.90;;;2.70;;
18411;SDS011;27097;51.738;19.472;2023-05-27T01:42:00;5.95;;;2.22;;
18411;SDS011;27097;51.738;19.472;2023-05-27T01:44:28;7.40;;;2.58;;
18411;SDS011;27097;51.738;19.472;2023-05-27T01:46:57;9.50;;;2.30;;
18411;SDS011;27097;51.738;19.472;2023-05-27T01:49:25;5.93;;;2.55;;
18411;SDS011;27097;51.738;19.472;2023-05-27T01:51:52;5.65;;;2.05;;
18411;SDS011;27097;51.738;19.472;2023-05-27T01:54:19;7.68;;;2.22;;
18411;SDS011;27097;51.738;19.472;2023-05-27T01:56:47;5.90;;;2.15;;
18411;SDS011;27097;51.738;19.472;2023-05-27T01:59:14;9.30;;;2.35;;
18411;SDS011;27097;51.738;19.472;2023-05-27T02:01:41;9.38;;;2.40;;
18411;SDS011;27097;51.738;19.472;2023-05-27T02:04:08;7.38;;;2.28;;
18411;SDS011;27097;51.738;19.472;2023-05-27T02:06:38;7.88;;;2.35;;
18411;SDS011;27097;51.738;19.472;2023-05-27T02:09:05;5.45;;;2.05;;
18411;SDS011;27097;51.738;19.472;2023-05-27T02:11:32;7.63;;;2.47;;
18411;SDS011;27097;51.738;19.472;2023-05-27T02:14:00;4.85;;;2.28;;
18411;SDS011;27097;51.738;19.472;2023-05-27T02:16:27;6.43;;;2.40;;
18411;SDS011;27097;51.738;19.472;2023-05-27T02:18:55;5.93;;;2.50;;
18411;SDS011;27097;51.738;19.472;2023-05-27T02:21:22;6.28;;;1.85;;
18411;SDS011;27097;51.738;19.472;2023-05-27T02:23:49;6.95;;;2.50;;
18411;SDS011;27097;51.738;19.472;2023-05-27T02:26:16;5.57;;;2.03;;
18411;SDS011;27097;51.738;19.472;2023-05-27T02:28:43;7.60;;;2.05;;
18411;SDS011;27097;51.738;19.472;2023-05-27T02:31:11;7.97;;;2.45;;
18411;SDS011;27097;51.738;19.472;2023-05-27T02:33:38;5.95;;;2.10;;
18411;SDS011;27097;51.738;19.472;2023-05-27T02:36:05;4.75;;;2.08;;
18411;SDS011;27097;51.738;19.472;2023-05-27T02:38:32;4.75;;;2.20;;
18411;SDS011;27097;51.738;19.472;2023-05-27T02:40:59;8.55;;;2.53;;
18411;SDS011;27097;51.738;19.472;2023-05-27T02:43:26;4.82;;;2.10;;
18411;SDS011;27097;51.738;19.472;2023-05-27T02:45:53;5.28;;;2.20;;
18411;SDS011;27097;51.738;19.472;2023-05-27T02:48:21;6.43;;;2.40;;
18411;SDS011;27097;51.738;19.472;2023-05-27T02:50:48;7.28;;;2.33;;
18411;SDS011;27097;51.738;19.472;2023-05-27T02:53:15;4.32;;;2.15;;
18411;SDS011;27097;51.738;19.472;2023-05-27T02:55:42;5.93;;;2.17;;
18411;SDS011;27097;51.738;19.472;2023-05-27T02:58:09;5.45;;;2.17;;
18411;SDS011;27097;51.738;19.472;2023-05-27T03:00:36;5.43;;;1.92;;
18411;SDS011;27097;51.738;19.472;2023-05-27T03:03:02;5.47;;;2.03;;
18411;SDS011;27097;51.738;19.472;2023-05-27T03:05:33;5.18;;;2.10;;
18411;SDS011;27097;51.738;19.472;2023-05-27T03:08:00;6.75;;;2.20;;
18411;SDS011;27097;51.738;19.472;2023-05-27T03:10:27;7.43;;;2.33;;
18411;SDS011;27097;51.738;19.472;2023-05-27T03:12:54;7.57;;;2.47;;
18411;SDS011;27097;51.738;19.472;2023-05-27T03:15:21;4.78;;;1.90;;
18411;SDS011;27097;51.738;19.472;2023-05-27T03:17:48;7.95;;;2.35;;
18411;SDS011;27097;51.738;19.472;2023-05-27T03:20:17;5.88;;;2.22;;
18411;SDS011;27097;51.738;19.472;2023-05-27T03:22:45;7.07;;;2.20;;
18411;SDS011;27097;51.738;19.472;2023-05-27T03:25:12;7.65;;;2.47;;
18411;SDS011;27097;51.738;19.472;2023-05-27T03:27:39;9.50;;;2.10;;
18411;SDS011;27097;51.738;19.472;2023-05-27T03:30:06;8.27;;;2.10;;
18411;SDS011;27097;51.738;19.472;2023-05-27T03:32:34;6.18;;;2.28;;
18411;SDS011;27097;51.738;19.472;2023-05-27T03:35:01;6.68;;;2.20;;
18411;SDS011;27097;51.738;19.472;2023-05-27T03:37:28;9.38;;;2.30;;
18411;SDS011;27097;51.738;19.472;2023-05-27T03:39:56;7.80;;;2.40;;
18411;SDS011;27097;51.738;19.472;2023-05-27T03:42:23;5.32;;;2.30;;
18411;SDS011;27097;51.738;19.472;2023-05-27T03:44:50;4.72;;;2.20;;
18411;SDS011;27097;51.738;19.472;2023-05-27T03:47:17;6.47;;;2.35;;
18411;SDS011;27097;51.738;19.472;2023-05-27T03:49:45;5.50;;;2.10;;
18411;SDS011;27097;51.738;19.472;2023-05-27T03:52:12;7.15;;;2.15;;
18411;SDS011;27097;51.738;19.472;2023-05-27T03:54:39;5.68;;;2.05;;
18411;SDS011;27097;51.738;19.472;2023-05-27T03:57:08;6.10;;;2.10;;
18411;SDS011;27097;51.738;19.472;2023-05-27T03:59:35;4.55;;;2.17;;
18411;SDS011;27097;51.738;19.472;2023-05-27T04:02:02;5.97;;;2.22;;
18411;SDS011;27097;51.738;19.472;2023-05-27T04:04:29;8.57;;;2.35;;
18411;SDS011;27097;51.738;19.472;2023-05-27T04:06:56;6.85;;;2.42;;
18411;SDS011;27097;51.738;19.472;2023-05-27T04:09:23;6.25;;;2.38;;
18411;SDS011;27097;51.738;19.472;2023-05-27T04:11:50;7.93;;;2.15;;
18411;SDS011;27097;51.738;19.472;2023-05-27T04:14:18;5.95;;;2.30;;
18411;SDS011;27097;51.738;19.472;2023-05-27T04:16:45;5.57;;;1.83;;
18411;SDS011;27097;51.738;19.472;2023-05-27T04:19:12;6.10;;;2.13;;
18411;SDS011;27097;51.738;19.472;2023-05-27T04:21:40;9.73;;;2.33;;
18411;SDS011;27097;51.738;19.472;2023-05-27T04:24:06;6.50;;;2.15;;
18411;SDS011;27097;51.738;19.472;2023-05-27T04:26:33;4.18;;;1.80;;
18411;SDS011;27097;51.738;19.472;2023-05-27T04:29:00;7.35;;;2.13;;
18411;SDS011;27097;51.738;19.472;2023-05-27T04:31:32;5.05;;;1.83;;
18411;SDS011;27097;51.738;19.472;2023-05-27T04:34:01;5.65;;;2.10;;
18411;SDS011;27097;51.738;19.472;2023-05-27T04:36:29;4.72;;;2.28;;
18411;SDS011;27097;51.738;19.472;2023-05-27T04:38:58;4.95;;;1.90;;
18411;SDS011;27097;51.738;19.472;2023-05-27T04:41:26;6.22;;;2.25;;
18411;SDS011;27097;51.738;19.472;2023-05-27T04:43:53;5.43;;;1.80;;
18411;SDS011;27097;51.738;19.472;2023-05-27T04:46:21;6.60;;;1.95;;
18411;SDS011;27097;51.738;19.472;2023-05-27T04:48:51;4.70;;;1.90;;
18411;SDS011;27097;51.738;19.472;2023-05-27T04:51:18;6.30;;;2.20;;
18411;SDS011;27097;51.738;19.472;2023-05-27T04:53:45;4.80;;;2.00;;
18411;SDS011;27097;51.738;19.472;2023-05-27T04:56:13;5.10;;;1.98;;
18411;SDS011;27097;51.738;19.472;2023-05-27T04:58:41;9.18;;;2.05;;
18411;SDS011;27097;51.738;19.472;2023-05-27T05:01:09;7.70;;;2.00;;
18411;SDS011;27097;51.738;19.472;2023-05-27T05:03:42;6.32;;;1.88;;
18411;SDS011;27097;51.738;19.472;2023-05-27T05:06:19;5.20;;;1.88;;
18411;SDS011;27097;51.738;19.472;2023-05-27T05:08:47;5.18;;;2.00;;
18411;SDS011;27097;51.738;19.472;2023-05-27T05:11:14;4.70;;;1.85;;
18411;SDS011;27097;51.738;19.472;2023-05-27T05:13:41;5.45;;;2.20;;
18411;SDS011;27097;51.738;19.472;2023-05-27T05:16:08;5.22;;;2.13;;
18411;SDS011;27097;51.738;19.472;2023-05-27T05:18:34;5.22;;;2.00;;
18411;SDS011;27097;51.738;19.472;2023-05-27T05:21:01;4.53;;;1.90;;
18411;SDS011;27097;51.738;19.472;2023-05-27T05:23:30;5.80;;;2.10;;
18411;SDS011;27097;51.738;19.472;2023-05-27T05:25:57;6.75;;;1.90;;
18411;SDS011;27097;51.738;19.472;2023-05-27T05:28:31;4.90;;;1.92;;
18411;SDS011;27097;51.738;19.472;2023-05-27T05:30:58;4.80;;;1.75;;
18411;SDS011;27097;51.738;19.472;2023-05-27T05:33:25;6.10;;;1.80;;
18411;SDS011;27097;51.738;19.472;2023-05-27T05:35:52;5.75;;;1.85;;
18411;SDS011;27097;51.738;19.472;2023-05-27T05:38:19;4.47;;;2.20;;
18411;SDS011;27097;51.738;19.472;2023-05-27T05:40:47;4.05;;;1.95;;
18411;SDS011;27097;51.738;19.472;2023-05-27T05:43:17;2.55;;;1.60;;
18411;SDS011;27097;51.738;19.472;2023-05-27T05:45:45;6.53;;;2.10;;
18411;SDS011;27097;51.738;19.472;2023-05-27T05:48:12;4.93;;;2.05;;
18411;SDS011;27097;51.738;19.472;2023-05-27T05:50:39;4.78;;;2.13;;
18411;SDS011;27097;51.738;19.472;2023-05-27T05:53:06;4.85;;;1.95;;
18411;SDS011;27097;51.738;19.472;2023-05-27T05:55:33;4.07;;;1.70;;
18411;SDS011;27097;51.738;19.472;2023-05-27T05:58:01;4.95;;;2.05;;
18411;SDS011;27097;51.738;19.472;2023-05-27T06:00:28;3.85;;;2.00;;
18411;SDS011;27097;51.738;19.472;2023-05-27T06:02:55;5.00;;;1.90;;
18411;SDS011;27097;51.738;19.472;2023-05-27T06:05:23;3.40;;;1.63;;
18411;SDS011;27097;51.738;19.472;2023-05-27T06:07:55;4.63;;;1.80;;
18411;SDS011;27097;51.738;19.472;2023-05-27T06:10:28;5.43;;;2.00;;
18411;SDS011;27097;51.738;19.472;2023-05-27T06:12:55;4.18;;;1.95;;
18411;SDS011;27097;51.738;19.472;2023-05-27T06:15:26;4.72;;;1.55;;
18411;SDS011;27097;51.738;19.472;2023-05-27T06:17:53;4.18;;;1.88;;
18411;SDS011;27097;51.738;19.472;2023-05-27T06:20:22;4.85;;;2.10;;
18411;SDS011;27097;51.738;19.472;2023-05-27T06:22:49;4.78;;;1.77;;
18411;SDS011;27097;51.738;19.472;2023-05-27T06:25:20;5.03;;;2.20;;
18411;SDS011;27097;51.738;19.472;2023-05-27T06:27:53;4.28;;;2.05;;
18411;SDS011;27097;51.738;19.472;2023-05-27T06:30:22;4.32;;;1.77;;
18411;SDS011;27097;51.738;19.472;2023-05-27T06:32:52;5.47;;;2.05;;
18411;SDS011;27097;51.738;19.472;2023-05-27T06:35:19;4.72;;;1.95;;
18411;SDS011;27097;51.738;19.472;2023-05-27T06:37:46;3.97;;;1.50;;
18411;SDS011;27097;51.738;19.472;2023-05-27T06:40:13;4.00;;;1.73;;
18411;SDS011;27097;51.738;19.472;2023-05-27T06:42:40;2.90;;;1.73;;
18411;SDS011;27097;51.738;19.472;2023-05-27T06:45:09;5.35;;;1.90;;
18411;SDS011;27097;51.738;19.472;2023-05-27T06:47:42;3.88;;;1.80;;
18411;SDS011;27097;51.738;19.472;2023-05-27T06:50:16;5.32;;;1.70;;
18411;SDS011;27097;51.738;19.472;2023-05-27T06:52:49;4.30;;;1.90;;
18411;SDS011;27097;51.738;19.472;2023-05-27T06:55:27;5.15;;;1.83;;
18411;SDS011;27097;51.738;19.472;2023-05-27T06:57:57;4.28;;;1.88;;
18411;SDS011;27097;51.738;19.472;2023-05-27T07:00:30;4.15;;;1.95;;
18411;SDS011;27097;51.738;19.472;2023-05-27T07:03:03;3.72;;;1.67;;
18411;SDS011;27097;51.738;19.472;2023-05-27T07:05:34;3.72;;;1.77;;
18411;SDS011;27097;51.738;19.472;2023-05-27T07:08:07;6.57;;;1.90;;
18411;SDS011;27097;51.738;19.472;2023-05-27T07:10:34;5.03;;;1.92;;
18411;SDS011;27097;51.738;19.472;2023-05-27T07:13:01;2.92;;;1.58;;
18411;SDS011;27097;51.738;19.472;2023-05-27T07:15:31;4.28;;;1.80;;
18411;SDS011;27097;51.738;19.472;2023-05-27T07:18:06;6.13;;;1.92;;
18411;SDS011;27097;51.738;19.472;2023-05-27T07:20:35;4.80;;;2.08;;
18411;SDS011;27097;51.738;19.472;2023-05-27T07:23:07;3.92;;;1.85;;
18411;SDS011;27097;51.738;19.472;2023-05-27T07:25:36;5.90;;;1.63;;
18411;SDS011;27097;51.738;19.472;2023-05-27T07:28:04;3.97;;;1.70;;
18411;SDS011;27097;51.738;19.472;2023-05-27T07:30:31;4.28;;;1.70;;
18411;SDS011;27097;51.738;19.472;2023-05-27T07:33:08;4.28;;;1.50;;
18411;SDS011;27097;51.738;19.472;2023-05-27T07:35:37;3.78;;;1.73;;
18411;SDS011;27097;51.738;19.472;2023-05-27T07:38:04;3.05;;;1.60;;
18411;SDS011;27097;51.738;19.472;2023-05-27T07:40:31;5.25;;;1.52;;
18411;SDS011;27097;51.738;19.472;2023-05-27T07:43:00;3.40;;;1.63;;
18411;SDS011;27097;51.738;19.472;2023-05-27T07:45:29;5.22;;;1.58;;
18411;SDS011;27097;51.738;19.472;2023-05-27T07:47:58;5.22;;;1.70;;
18411;SDS011;27097;51.738;19.472;2023-05-27T07:50:30;4.13;;;1.40;;
18411;SDS011;27097;51.738;19.472;2023-05-27T07:53:00;4.15;;;1.48;;
18411;SDS011;27097;51.738;19.472;2023-05-27T07:55:30;3.42;;;1.40;;
18411;SDS011;27097;51.738;19.472;2023-05-27T07:58:01;6.55;;;1.58;;
18411;SDS011;27097;51.738;19.472;2023-05-27T08:00:30;4.20;;;1.67;;
18411;SDS011;27097;51.738;19.472;2023-05-27T08:03:03;3.85;;;1.35;;
18411;SDS011;27097;51.738;19.472;2023-05-27T08:05:31;4.13;;;1.52;;
18411;SDS011;27097;51.738;19.472;2023-05-27T08:08:03;4.85;;;1.73;;
18411;SDS011;27097;51.738;19.472;2023-05-27T08:10:31;4.75;;;1.60;;
18411;SDS011;27097;51.738;19.472;2023-05-27T08:13:00;4.43;;;1.60;;
18411;SDS011;27097;51.738;19.472;2023-05-27T08:15:27;8.95;;;1.95;;
18411;SDS011;27097;51.738;19.472;2023-05-27T08:17:55;7.82;;;1.90;;
18411;SDS011;27097;51.738;19.472;2023-05-27T08:20:22;14.07;;;2.05;;
18411;SDS011;27097;51.738;19.472;2023-05-27T08:22:54;9.43;;;1.70;;
18411;SDS011;27097;51.738;19.472;2023-05-27T08:25:29;11.82;;;2.30;;
18411;SDS011;27097;51.738;19.472;2023-05-27T08:27:56;9.48;;;1.90;;
18411;SDS011;27097;51.738;19.472;2023-05-27T08:30:26;11.95;;;1.83;;
18411;SDS011;27097;51.738;19.472;2023-05-27T08:32:54;10.90;;;1.83;;
18411;SDS011;27097;51.738;19.472;2023-05-27T08:35:20;5.95;;;1.65;;
18411;SDS011;27097;51.738;19.472;2023-05-27T08:37:47;9.68;;;1.98;;
18411;SDS011;27097;51.738;19.472;2023-05-27T08:40:15;9.48;;;1.67;;
18411;SDS011;27097;51.738;19.472;2023-05-27T08:42:46;7.47;;;2.30;;
18411;SDS011;27097;51.738;19.472;2023-05-27T08:45:14;8.88;;;2.40;;
18411;SDS011;27097;51.738;19.472;2023-05-27T08:47:41;12.80;;;2.47;;
18411;SDS011;27097;51.738;19.472;2023-05-27T08:50:08;9.07;;;2.08;;
18411;SDS011;27097;51.738;19.472;2023-05-27T08:52:37;9.48;;;1.95;;
18411;SDS011;27097;51.738;19.472;2023-05-27T08:55:08;7.05;;;1.98;;
18411;SDS011;27097;51.738;19.472;2023-05-27T08:57:38;8.45;;;2.03;;
18411;SDS011;27097;51.738;19.472;2023-05-27T09:00:12;6.57;;;1.63;;
18411;SDS011;27097;51.738;19.472;2023-05-27T09:02:42;8.00;;;1.75;;
18411;SDS011;27097;51.738;19.472;2023-05-27T09:05:09;4.05;;;1.75;;
18411;SDS011;27097;51.738;19.472;2023-05-27T09:07:37;11.35;;;2.10;;
18411;SDS011;27097;51.738;19.472;2023-05-27T09:10:07;6.22;;;1.80;;
18411;SDS011;27097;51.738;19.472;2023-05-27T09:12:35;5.32;;;1.88;;
18411;SDS011;27097;51.738;19.472;2023-05-27T09:15:02;4.53;;;1.83;;
18411;SDS011;27097;51.738;19.472;2023-05-27T09:17:31;7.30;;;1.73;;
18411;SDS011;27097;51.738;19.472;2023-05-27T09:19:59;7.65;;;1.80;;
18411;SDS011;27097;51.738;19.472;2023-05-27T09:22:31;6.72;;;1.70;;
18411;SDS011;27097;51.738;19.472;2023-05-27T09:24:59;5.72;;;1.88;;
18411;SDS011;27097;51.738;19.472;2023-05-27T09:27:26;5.43;;;1.73;;
18411;SDS011;27097;51.738;19.472;2023-05-27T09:29:55;9.20;;;1.80;;
18411;SDS011;27097;51.738;19.472;2023-05-27T09:32:25;4.80;;;1.60;;
18411;SDS011;27097;51.738;19.472;2023-05-27T09:34:54;8.23;;;1.60;;
18411;SDS011;27097;51.738;19.472;2023-05-27T09:37:24;7.40;;;1.95;;
18411;SDS011;27097;51.738;19.472;2023-05-27T09:39:56;7.18;;;2.03;;
18411;SDS011;27097;51.738;19.472;2023-05-27T09:42:23;8.10;;;1.90;;
18411;SDS011;27097;51.738;19.472;2023-05-27T09:44:50;4.60;;;1.77;;
18411;SDS011;27097;51.738;19.472;2023-05-27T09:47:24;9.25;;;1.95;;
18411;SDS011;27097;51.738;19.472;2023-05-27T09:49:52;10.38;;;1.98;;
18411;SDS011;27097;51.738;19.472;2023-05-27T09:52:23;4.28;;;1.65;;
18411;SDS011;27097;51.738;19.472;2023-05-27T09:54:51;3.53;;;1.58;;
18411;SDS011;27097;51.738;19.472;2023-05-27T09:57:18;8.75;;;1.67;;
18411;SDS011;27097;51.738;19.472;2023-05-27T09:59:49;3.67;;;1.52;;
18411;SDS011;27097;51.738;19.472;2023-05-27T10:02:17;5.72;;;1.80;;
18411;SDS011;27097;51.738;19.472;2023-05-27T10:04:46;4.45;;;1.60;;
18411;SDS011;27097;51.738;19.472;2023-05-27T10:07:16;4.97;;;1.50;;
18411;SDS011;27097;51.738;19.472;2023-05-27T10:09:52;9.30;;;1.92;;
18411;SDS011;27097;51.738;19.472;2023-05-27T10:12:20;7.05;;;1.63;;
18411;SDS011;27097;51.738;19.472;2023-05-27T10:14:47;5.88;;;1.92;;
18411;SDS011;27097;51.738;19.472;2023-05-27T10:17:14;3.70;;;1.92;;
18411;SDS011;27097;51.738;19.472;2023-05-27T10:19:53;3.65;;;1.55;;
18411;SDS011;27097;51.738;19.472;2023-05-27T10:22:22;6.38;;;1.95;;
18411;SDS011;27097;51.738;19.472;2023-05-27T10:24:49;7.85;;;1.80;;
18411;SDS011;27097;51.738;19.472;2023-05-27T10:27:19;5.97;;;1.40;;
18411;SDS011;27097;51.738;19.472;2023-05-27T10:29:56;6.70;;;2.00;;
18411;SDS011;27097;51.738;19.472;2023-05-27T10:32:24;6.55;;;1.45;;
18411;SDS011;27097;51.738;19.472;2023-05-27T10:34:53;5.93;;;2.00;;
18411;SDS011;27097;51.738;19.472;2023-05-27T10:37:26;7.45;;;1.73;;
18411;SDS011;27097;51.738;19.472;2023-05-27T10:40:00;7.55;;;1.80;;
18411;SDS011;27097;51.738;19.472;2023-05-27T10:42:32;3.10;;;1.60;;
18411;SDS011;27097;51.738;19.472;2023-05-27T10:45:06;2.92;;;1.30;;
18411;SDS011;27097;51.738;19.472;2023-05-27T10:47:36;4.93;;;1.80;;
18411;SDS011;27097;51.738;19.472;2023-05-27T10:50:09;4.65;;;1.80;;
18411;SDS011;27097;51.738;19.472;2023-05-27T10:52:38;5.53;;;1.50;;
18411;SDS011;27097;51.738;19.472;2023-05-27T10:55:05;4.70;;;1.65;;
18411;SDS011;27097;51.738;19.472;2023-05-27T10:57:34;3.50;;;1.65;;
18411;SDS011;27097;51.738;19.472;2023-05-27T11:00:02;3.42;;;1.50;;
18411;SDS011;27097;51.738;19.472;2023-05-27T11:02:33;2.95;;;1.55;;
18411;SDS011;27097;51.738;19.472;2023-05-27T11:05:07;2.28;;;1.52;;
18411;SDS011;27097;51.738;19.472;2023-05-27T11:07:36;4.63;;;1.70;;
18411;SDS011;27097;51.738;19.472;2023-05-27T11:10:04;6.18;;;1.92;;
18411;SDS011;27097;51.738;19.472;2023-05-27T11:12:33;5.43;;;1.90;;
18411;SDS011;27097;51.738;19.472;2023-05-27T11:15:00;2.90;;;1.55;;
18411;SDS011;27097;51.738;19.472;2023-05-27T11:17:27;4.57;;;1.80;;
18411;SDS011;27097;51.738;19.472;2023-05-27T11:19:55;2.33;;;1.55;;
18411;SDS011;27097;51.738;19.472;2023-05-27T11:22:22;3.13;;;1.55;;
18411;SDS011;27097;51.738;19.472;2023-05-27T11:24:55;2.92;;;1.65;;
18411;SDS011;27097;51.738;19.472;2023-05-27T11:27:23;4.40;;;1.42;;
18411;SDS011;27097;51.738;19.472;2023-05-27T11:29:52;2.72;;;1.60;;
18411;SDS011;27097;51.738;19.472;2023-05-27T11:32:19;3.17;;;1.55;;
18411;SDS011;27097;51.738;19.472;2023-05-27T11:34:46;4.05;;;1.40;;
18411;SDS011;27097;51.738;19.472;2023-05-27T11:37:13;4.05;;;1.70;;
18411;SDS011;27097;51.738;19.472;2023-05-27T11:39:48;4.38;;;1.70;;
18411;SDS011;27097;51.738;19.472;2023-05-27T11:42:19;3.20;;;1.40;;
18411;SDS011;27097;51.738;19.472;2023-05-27T11:44:49;5.82;;;1.75;;
18411;SDS011;27097;51.738;19.472;2023-05-27T11:47:18;3.67;;;1.50;;
18411;SDS011;27097;51.738;19.472;2023-05-27T11:49:45;2.85;;;1.70;;
18411;SDS011;27097;51.738;19.472;2023-05-27T11:52:12;3.47;;;1.67;;
18411;SDS011;27097;51.738;19.472;2023-05-27T11:54:39;3.83;;;1.50;;
18411;SDS011;27097;51.738;19.472;2023-05-27T11:57:06;3.53;;;1.48;;
18411;SDS011;27097;51.738;19.472;2023-05-27T11:59:35;3.92;;;1.42;;
18411;SDS011;27097;51.738;19.472;2023-05-27T12:02:04;2.58;;;1.38;;
18411;SDS011;27097;51.738;19.472;2023-05-27T12:04:31;2.38;;;1.55;;
18411;SDS011;27097;51.738;19.472;2023-05-27T12:06:58;6.25;;;1.80;;
18411;SDS011;27097;51.738;19.472;2023-05-27T12:09:26;3.25;;;1.50;;
18411;SDS011;27097;51.738;19.472;2023-05-27T12:11:53;4.07;;;1.60;;
18411;SDS011;27097;51.738;19.472;2023-05-27T12:14:20;3.35;;;1.80;;
18411;SDS011;27097;51.738;19.472;2023-05-27T12:16:47;3.72;;;1.50;;
18411;SDS011;27097;51.738;19.472;2023-05-27T12:19:15;5.47;;;1.58;;
18411;SDS011;27097;51.738;19.472;2023-05-27T12:21:42;2.60;;;1.60;;
18411;SDS011;27097;51.738;19.472;2023-05-27T12:24:09;3.03;;;1.60;;
18411;SDS011;27097;51.738;19.472;2023-05-27T12:26:36;2.33;;;1.50;;
18411;SDS011;27097;51.738;19.472;2023-05-27T12:29:05;3.92;;;1.40;;
18411;SDS011;27097;51.738;19.472;2023-05-27T12:31:32;4.50;;;1.40;;
18411;SDS011;27097;51.738;19.472;2023-05-27T12:34:00;2.15;;;1.60;;
18411;SDS011;27097;51.738;19.472;2023-05-27T12:36:28;4.47;;;1.50;;
18411;SDS011;27097;51.738;19.472;2023-05-27T12:38:55;3.60;;;1.40;;
18411;SDS011;27097;51.738;19.472;2023-05-27T12:41:21;2.80;;;1.48;;
18411;SDS011;27097;51.738;19.472;2023-05-27T12:43:48;5.57;;;1.60;;
18411;SDS011;27097;51.738;19.472;2023-05-27T12:46:15;5.15;;;1.58;;
18411;SDS011;27097;51.738;19.472;2023-05-27T12:48:42;2.47;;;1.40;;
18411;SDS011;27097;51.738;19.472;2023-05-27T12:51:09;3.53;;;1.73;;
18411;SDS011;27097;51.738;19.472;2023-05-27T12:53:38;3.53;;;1.50;;
18411;SDS011;27097;51.738;19.472;2023-05-27T12:56:05;3.08;;;1.50;;
18411;SDS011;27097;51.738;19.472;2023-05-27T12:58:32;1.80;;;1.30;;
18411;SDS011;27097;51.738;19.472;2023-05-27T13:00:59;3.58;;;1.67;;
18411;SDS011;27097;51.738;19.472;2023-05-27T13:03:26;3.38;;;1.52;;
18411;SDS011;27097;51.738;19.472;2023-05-27T13:05:53;2.33;;;1.33;;
18411;SDS011;27097;51.738;19.472;2023-05-27T13:08:19;2.72;;;1.60;;
18411;SDS011;27097;51.738;19.472;2023-05-27T13:10:48;2.05;;;1.38;;
18411;SDS011;27097;51.738;19.472;2023-05-27T13:13:15;2.65;;;1.60;;
18411;SDS011;27097;51.738;19.472;2023-05-27T13:15:42;3.05;;;1.30;;
18411;SDS011;27097;51.738;19.472;2023-05-27T13:18:09;3.78;;;1.50;;
18411;SDS011;27097;51.738;19.472;2023-05-27T13:20:35;2.35;;;1.60;;
18411;SDS011;27097;51.738;19.472;2023-05-27T13:23:03;3.55;;;1.65;;
18411;SDS011;27097;51.738;19.472;2023-05-27T13:25:30;2.40;;;1.40;;
18411;SDS011;27097;51.738;19.472;2023-05-27T13:27:59;2.92;;;1.40;;
18411;SDS011;27097;51.738;19.472;2023-05-27T13:30:26;1.90;;;1.17;;
18411;SDS011;27097;51.738;19.472;2023-05-27T13:32:53;2.75;;;1.45;;
18411;SDS011;27097;51.738;19.472;2023-05-27T13:35:21;2.95;;;1.58;;
18411;SDS011;27097;51.738;19.472;2023-05-27T13:37:47;3.38;;;1.38;;
18411;SDS011;27097;51.738;19.472;2023-05-27T13:40:14;3.38;;;1.55;;
18411;SDS011;27097;51.738;19.472;2023-05-27T13:42:41;4.25;;;1.48;;
18411;SDS011;27097;51.738;19.472;2023-05-27T13:45:10;2.95;;;1.50;;
18411;SDS011;27097;51.738;19.472;2023-05-27T13:47:36;2.50;;;1.25;;
18411;SDS011;27097;51.738;19.472;2023-05-27T13:50:05;2.28;;;1.30;;
18411;SDS011;27097;51.738;19.472;2023-05-27T13:52:33;2.30;;;1.25;;
18411;SDS011;27097;51.738;19.472;2023-05-27T13:54:59;2.80;;;1.52;;
18411;SDS011;27097;51.738;19.472;2023-05-27T13:57:26;3.47;;;1.40;;
18411;SDS011;27097;51.738;19.472;2023-05-27T13:59:53;9.05;;;1.52;;
18411;SDS011;27097;51.738;19.472;2023-05-27T14:02:21;2.55;;;1.58;;
18411;SDS011;27097;51.738;19.472;2023-05-27T14:04:48;2.35;;;1.38;;
18411;SDS011;27097;51.738;19.472;2023-05-27T14:07:15;3.20;;;1.33;;
18411;SDS011;27097;51.738;19.472;2023-05-27T14:09:42;3.38;;;1.60;;
18411;SDS011;27097;51.738;19.472;2023-05-27T14:12:09;3.60;;;1.50;;
18411;SDS011;27097;51.738;19.472;2023-05-27T14:14:36;1.88;;;1.50;;
18411;SDS011;27097;51.738;19.472;2023-05-27T14:17:03;2.78;;;1.38;;
18411;SDS011;27097;51.738;19.472;2023-05-27T14:19:32;2.67;;;1.40;;
18411;SDS011;27097;51.738;19.472;2023-05-27T14:21:59;2.20;;;1.30;;
18411;SDS011;27097;51.738;19.472;2023-05-27T14:24:26;3.17;;;1.50;;
18411;SDS011;27097;51.738;19.472;2023-05-27T14:26:53;3.05;;;1.58;;
18411;SDS011;27097;51.738;19.472;2023-05-27T14:29:19;3.67;;;1.48;;
18411;SDS011;27097;51.738;19.472;2023-05-27T14:31:46;2.95;;;1.50;;
18411;SDS011;27097;51.738;19.472;2023-05-27T14:34:13;4.40;;;1.50;;
18411;SDS011;27097;51.738;19.472;2023-05-27T14:36:41;1.73;;;1.33;;
18411;SDS011;27097;51.738;19.472;2023-05-27T14:39:08;4.25;;;1.60;;